Irving South's Hourly Summary for Friday, May 11, 2018
Hour Temp
(f)
RH
(%)
Solar Rad.
(MJ/m2)
Rainfall
(in)
Wind
(mph)
5/11/2018 12:00 AM 75 54 0 0 2.08
5/11/2018 1:00 AM 75 56 0 0 4.1
5/11/2018 2:00 AM 73 64 0 0 4.06
5/11/2018 3:00 AM 72 70 0 0 3.47
5/11/2018 4:00 AM 71 75 0 0 2.9
5/11/2018 5:00 AM 69 79 0 0 2.97
5/11/2018 6:00 AM 69 82 0 0 2.39
5/11/2018 7:00 AM 69 81 0.02 0 2.09
5/11/2018 8:00 AM 70 77 0.24 0 2.26
5/11/2018 9:00 AM 72 70 0.79 0 4.5
5/11/2018 10:00 AM 74 64 1.55 0 6.12
5/11/2018 11:00 AM 76 57 2.44 0 7.64
5/11/2018 12:00 PM 79 51 3.09 0 7.73
5/11/2018 1:00 PM 81 48 3.57 0 7.58
5/11/2018 2:00 PM 83 46 3.35 0 6.33
5/11/2018 3:00 PM 84 42 3.52 0 6.83
5/11/2018 4:00 PM 86 39 3.08 0 6.31
5/11/2018 5:00 PM 87 38 2.31 0 5.5
5/11/2018 6:00 PM 87 38 1.8 0 4.92
5/11/2018 7:00 PM 86 40 0.64 0 4.41
5/11/2018 8:00 PM 84 41 0.26 0 3.65
5/11/2018 9:00 PM 81 45 0.01 0 1.81
5/11/2018 10:00 PM 79 47 0 0 1.04
5/11/2018 11:00 PM 78 52 0 0 1.55
Data Summary 77 56 26.67 0.00 4.26